Time;durP1;ratioP1;P1;durP2;ratioP2;P2;SDS_P1;SDS_P2;PMS_P1;PMS_P2;Temp;Humidity;BMP_temperature;BMP_pressure;BME280_temperature;BME280_humidity;BME280_pressure;Samples;Min_cycle;Max_cycle;Signal;HPM_P1;HPM_P2
2023/03/23 00:01:30;;;;;;;8.77;1.42;;;;;;;;;;5052157;28;20079;-65
2023/03/23 00:03:57;;;;;;;0.68;0.68;;;;;;;;;;5052150;28;20154;-64
2023/03/23 00:06:24;;;;;;;0.20;0.20;;;;;;;;;;5051911;28;20024;-65
2023/03/23 00:08:52;;;;;;;0.30;0.30;;;;;;;;;;5051944;28;20025;-65
2023/03/23 00:11:23;;;;;;;2.00;1.85;;;;;;;;;;5050517;28;20025;-64
2023/03/23 00:13:53;;;;;;;0.20;0.20;;;;;;;;;;5051941;28;20025;-65
2023/03/23 00:16:20;;;;;;;0.40;0.40;;;;;;;;;;5051800;28;20473;-65
2023/03/23 00:18:47;;;;;;;0.55;0.55;;;;;;;;;;5050989;28;20092;-65
2023/03/23 00:21:13;;;;;;;1.40;1.05;;;;;;;;;;5051774;28;20036;-64
2023/03/23 00:23:39;;;;;;;2.25;2.08;;;;;;;;;;5051761;28;20037;-66
2023/03/23 00:26:06;;;;;;;0.30;0.30;;;;;;;;;;5051580;28;20025;-65
2023/03/23 00:28:32;;;;;;;0.22;0.22;;;;;;;;;;5050471;28;20588;-65
2023/03/23 00:30:59;;;;;;;1.25;1.10;;;;;;;;;;5049325;28;20029;-65
2023/03/23 00:33:27;;;;;;;0.40;0.40;;;;;;;;;;5051721;28;20017;-64
2023/03/23 00:35:54;;;;;;;0.20;0.20;;;;;;;;;;5051456;28;21145;-65
2023/03/23 00:38:20;;;;;;;0.45;0.45;;;;;;;;;;5051498;28;20025;-65
2023/03/23 00:40:47;;;;;;;2.95;1.13;;;;;;;;;;5051503;28;20033;-65
2023/03/23 00:43:15;;;;;;;0.20;0.20;;;;;;;;;;5051464;28;20025;-65
2023/03/23 00:45:41;;;;;;;12.55;1.20;;;;;;;;;;5051487;28;20484;-65
2023/03/23 00:48:07;;;;;;;0.20;0.20;;;;;;;;;;5034985;28;20092;-66
2023/03/23 00:50:33;;;;;;;0.30;0.30;;;;;;;;;;5031558;28;20024;-65
2023/03/23 00:52:59;;;;;;;0.20;0.20;;;;;;;;;;5037228;28;20075;-64
2023/03/23 00:55:26;;;;;;;1.13;1.13;;;;;;;;;;5051208;28;20350;-66
2023/03/23 00:57:53;;;;;;;0.30;0.30;;;;;;;;;;5051177;28;20025;-67
2023/03/23 01:00:19;;;;;;;0.40;0.40;;;;;;;;;;5051266;28;20155;-65
2023/03/23 01:02:46;;;;;;;0.60;0.60;;;;;;;;;;5051199;28;20155;-65
2023/03/23 01:05:12;;;;;;;0.30;0.30;;;;;;;;;;5051302;28;20025;-65
2023/03/23 01:07:38;;;;;;;1.85;1.02;;;;;;;;;;5051095;28;20021;-69
2023/03/23 01:10:05;;;;;;;0.95;0.95;;;;;;;;;;5049430;28;20029;-68
2023/03/23 01:12:31;;;;;;;0.25;0.25;;;;;;;;;;5051121;28;20087;-68
2023/03/23 01:14:57;;;;;;;3.08;2.88;;;;;;;;;;5051388;28;20025;-66
2023/03/23 01:17:23;;;;;;;0.20;0.20;;;;;;;;;;5051242;28;20049;-66
2023/03/23 01:19:49;;;;;;;0.20;0.20;;;;;;;;;;5051214;28;20095;-69
2023/03/23 01:22:15;;;;;;;8.00;4.43;;;;;;;;;;5050182;28;20021;-68
2023/03/23 01:24:41;;;;;;;1.60;1.50;;;;;;;;;;5051193;28;20029;-69
2023/03/23 01:27:07;;;;;;;0.30;0.30;;;;;;;;;;5049942;28;20381;-69
2023/03/23 01:29:34;;;;;;;0.20;0.20;;;;;;;;;;5030302;28;20029;-69
2023/03/23 01:32:00;;;;;;;0.20;0.20;;;;;;;;;;5033794;28;20030;-69
2023/03/23 01:34:26;;;;;;;0.50;0.50;;;;;;;;;;5035037;28;20116;-70
2023/03/23 01:36:52;;;;;;;0.20;0.20;;;;;;;;;;5034762;28;20030;-70
2023/03/23 01:39:18;;;;;;;1.35;1.25;;;;;;;;;;5034716;28;20030;-69
2023/03/23 01:41:44;;;;;;;0.22;0.22;;;;;;;;;;5034867;28;20588;-70
2023/03/23 01:44:16;;;;;;;1.65;0.80;;;;;;;;;;5036793;28;20037;-70
2023/03/23 01:46:42;;;;;;;;;;;;;;;;;;5055106;28;20057;-68
2023/03/23 01:49:14;;;;;;;0.30;0.30;;;;;;;;;;5054784;28;19982;-66
2023/03/23 01:51:43;;;;;;;0.20;0.20;;;;;;;;;;5055103;28;20052;-66
2023/03/23 01:54:13;;;;;;;0.20;0.20;;;;;;;;;;5054744;28;20087;-65
2023/03/23 01:56:45;;;;;;;0.10;0.10;;;;;;;;;;5053379;28;20469;-66
2023/03/23 01:59:12;;;;;;;0.30;0.30;;;;;;;;;;5053955;28;20570;-66
2023/03/23 02:01:42;;;;;;;1.17;1.17;;;;;;;;;;5054055;28;20044;-66
2023/03/23 02:04:09;;;;;;;0.52;0.52;;;;;;;;;;5054514;28;20036;-65
2023/03/23 02:06:35;;;;;;;1.05;1.05;;;;;;;;;;5054626;28;20087;-66
2023/03/23 02:09:01;;;;;;;0.20;0.20;;;;;;;;;;5054174;28;20037;-64
2023/03/23 02:11:27;;;;;;;0.20;0.20;;;;;;;;;;5054323;28;20378;-65
2023/03/23 02:13:53;;;;;;;1.30;1.20;;;;;;;;;;5054085;28;20381;-64
2023/03/23 02:16:45;;;;;;;4.53;2.67;;;;;;;;;;5052874;28;20039;-64
2023/03/23 02:19:11;;;;;;;2.75;2.35;;;;;;;;;;5053991;28;20064;-64
2023/03/23 02:21:43;;;;;;;0.70;0.70;;;;;;;;;;5054159;28;20608;-63
2023/03/23 02:24:09;;;;;;;;;;;;;;;;;;5054556;28;20108;-63
2023/03/23 02:26:38;;;;;;;3.55;1.73;;;;;;;;;;5054015;28;20013;-63
2023/03/23 02:29:07;;;;;;;0.30;0.30;;;;;;;;;;5053763;28;20369;-63
2023/03/23 02:31:48;;;;;;;1.55;1.30;;;;;;;;;;5052710;28;20663;-63
2023/03/23 02:34:17;;;;;;;0.65;0.65;;;;;;;;;;5053841;28;20036;-63
2023/03/23 02:36:46;;;;;;;0.20;0.20;;;;;;;;;;5053703;28;20021;-63
2023/03/23 02:39:33;;;;;;;0.17;0.17;;;;;;;;;;5053623;28;20025;-62
2023/03/23 02:42:05;;;;;;;0.22;0.22;;;;;;;;;;5052997;28;20040;-63
2023/03/23 02:44:33;;;;;;;5.05;2.38;;;;;;;;;;5053348;28;20029;-63
2023/03/23 02:47:01;;;;;;;0.20;0.20;;;;;;;;;;5052363;28;20116;-63
2023/03/23 02:49:30;;;;;;;0.25;0.25;;;;;;;;;;5053375;28;20032;-63
2023/03/23 02:51:57;;;;;;;10.13;1.45;;;;;;;;;;5052060;28;20061;-63
2023/03/23 02:54:25;;;;;;;0.20;0.20;;;;;;;;;;5053570;28;20021;-62
2023/03/23 02:56:51;;;;;;;0.30;0.30;;;;;;;;;;5053185;28;20103;-62
2023/03/23 02:59:17;;;;;;;0.20;0.20;;;;;;;;;;5053103;28;20033;-64
2023/03/23 03:01:43;;;;;;;23.48;1.70;;;;;;;;;;5053294;28;20017;-63
2023/03/23 03:04:14;;;;;;;1.15;1.15;;;;;;;;;;5052205;28;20060;-63
2023/03/23 03:06:52;;;;;;;0.22;0.22;;;;;;;;;;5033337;28;20018;-64
2023/03/23 03:09:22;;;;;;;0.20;0.20;;;;;;;;;;5033185;28;20549;-63
2023/03/23 03:11:50;;;;;;;2.95;2.85;;;;;;;;;;5033203;28;20492;-64
2023/03/23 03:14:23;;;;;;;0.22;0.22;;;;;;;;;;5033145;28;20454;-63
2023/03/23 03:17:13;;;;;;;0.30;0.30;;;;;;;;;;5033075;28;20021;-63
2023/03/23 03:19:40;;;;;;;1.85;1.75;;;;;;;;;;5032310;28;20413;-63
2023/03/23 03:22:07;;;;;;;0.30;0.30;;;;;;;;;;5052919;28;20067;-63
2023/03/23 03:24:36;;;;;;;0.30;0.30;;;;;;;;;;5052877;28;20029;-63
2023/03/23 03:27:06;;;;;;;0.20;0.20;;;;;;;;;;5052646;28;20013;-63
2023/03/23 03:29:34;;;;;;;0.25;0.25;;;;;;;;;;5051406;28;20027;-63
2023/03/23 03:32:04;;;;;;;4.35;2.33;;;;;;;;;;5052749;28;20485;-63
2023/03/23 03:34:32;;;;;;;0.20;0.20;;;;;;;;;;5052685;28;20108;-62
2023/03/23 03:36:59;;;;;;;0.35;0.35;;;;;;;;;;5051467;28;20017;-63
2023/03/23 03:39:26;;;;;;;0.20;0.20;;;;;;;;;;5052296;28;20543;-63
2023/03/23 03:41:52;;;;;;;0.85;0.85;;;;;;;;;;5051348;28;20045;-64
2023/03/23 03:44:18;;;;;;;0.22;0.22;;;;;;;;;;5052083;28;20512;-63
2023/03/23 03:46:44;;;;;;;0.70;0.70;;;;;;;;;;5052528;28;20405;-66
2023/03/23 03:49:14;;;;;;;35.08;2.15;;;;;;;;;;5052525;28;20071;-66
2023/03/23 03:51:41;;;;;;;0.60;0.60;;;;;;;;;;5051089;28;20021;-66
2023/03/23 03:54:07;;;;;;;0.30;0.30;;;;;;;;;;5051753;28;20029;-70
2023/03/23 03:56:40;;;;;;;0.20;0.20;;;;;;;;;;5051999;28;20104;-67
2023/03/23 03:59:06;;;;;;;0.30;0.30;;;;;;;;;;5052452;28;20040;-67
2023/03/23 04:01:33;;;;;;;8.30;3.03;;;;;;;;;;5052191;28;20377;-66
2023/03/23 04:03:59;;;;;;;0.20;0.20;;;;;;;;;;5050943;28;20047;-66
2023/03/23 04:06:27;;;;;;;6.13;1.13;;;;;;;;;;5051982;28;20024;-65
2023/03/23 04:08:55;;;;;;;2.08;1.55;;;;;;;;;;5051689;28;20033;-67
2023/03/23 04:11:21;;;;;;;0.20;0.20;;;;;;;;;;5051928;28;20075;-66
2023/03/23 04:13:47;;;;;;;0.20;0.20;;;;;;;;;;5052116;28;20099;-64
2023/03/23 04:16:13;;;;;;;1.00;1.00;;;;;;;;;;5051774;28;20424;-65
2023/03/23 04:18:39;;;;;;;0.30;0.30;;;;;;;;;;5051688;28;20075;-65
2023/03/23 04:21:07;;;;;;;4.30;1.95;;;;;;;;;;5051865;28;20028;-66
2023/03/23 04:23:35;;;;;;;0.20;0.20;;;;;;;;;;5050580;28;20025;-65
2023/03/23 04:26:02;;;;;;;0.20;0.20;;;;;;;;;;5051780;28;20044;-64
2023/03/23 04:28:29;;;;;;;0.30;0.30;;;;;;;;;;5051867;28;20032;-64
2023/03/23 04:30:55;;;;;;;0.20;0.20;;;;;;;;;;5051590;28;20074;-63
2023/03/23 04:33:26;;;;;;;0.20;0.20;;;;;;;;;;5051662;28;20481;-64
2023/03/23 04:35:56;;;;;;;2.72;2.47;;;;;;;;;;5051445;28;20646;-62
2023/03/23 04:38:24;;;;;;;0.40;0.40;;;;;;;;;;5051499;28;20025;-63
2023/03/23 04:40:51;;;;;;;2.13;1.65;;;;;;;;;;5049333;28;20040;-64
2023/03/23 04:43:21;;;;;;;1.95;1.60;;;;;;;;;;5051623;28;20028;-63
2023/03/23 04:45:47;;;;;;;0.30;0.30;;;;;;;;;;5051360;28;20032;-64
2023/03/23 04:48:13;;;;;;;2.30;2.20;;;;;;;;;;5051401;28;20025;-63
2023/03/23 04:50:39;;;;;;;0.20;0.20;;;;;;;;;;5051326;28;20036;-64
2023/03/23 04:53:06;;;;;;;0.20;0.20;;;;;;;;;;5051223;28;20021;-64
2023/03/23 04:55:36;;;;;;;1.58;1.48;;;;;;;;;;5044024;28;20029;-64
2023/03/23 04:58:05;;;;;;;3.78;0.93;;;;;;;;;;5031367;28;20026;-64
2023/03/23 05:00:32;;;;;;;0.20;0.20;;;;;;;;;;5031148;28;20040;-64
2023/03/23 05:02:58;;;;;;;0.70;0.70;;;;;;;;;;5030099;28;20025;-63
2023/03/23 05:05:25;;;;;;;1.10;1.05;;;;;;;;;;5031289;28;20021;-63
2023/03/23 05:07:51;;;;;;;0.20;0.20;;;;;;;;;;5031371;28;20097;-68
2023/03/23 05:10:18;;;;;;;0.30;0.30;;;;;;;;;;5031600;28;20025;-63
2023/03/23 05:12:44;;;;;;;1.35;1.30;;;;;;;;;;5051199;28;20104;-64
2023/03/23 05:15:11;;;;;;;0.20;0.20;;;;;;;;;;5051176;28;20017;-65
2023/03/23 05:17:38;;;;;;;0.30;0.30;;;;;;;;;;5050945;28;20033;-65
2023/03/23 05:20:07;;;;;;;1.17;1.02;;;;;;;;;;5050635;28;20045;-64
2023/03/23 05:22:33;;;;;;;1.38;1.05;;;;;;;;;;5049646;28;20112;-64
2023/03/23 05:25:02;;;;;;;0.40;0.40;;;;;;;;;;5051111;28;20068;-63
2023/03/23 05:27:30;;;;;;;0.30;0.30;;;;;;;;;;5049581;28;20029;-65
2023/03/23 05:29:58;;;;;;;0.63;0.63;;;;;;;;;;5051151;28;20064;-64
2023/03/23 05:32:28;;;;;;;2.47;2.25;;;;;;;;;;5050803;28;20022;-65
2023/03/23 05:34:55;;;;;;;0.65;0.65;;;;;;;;;;5050931;28;20478;-66
2023/03/23 05:37:21;;;;;;;3.33;2.80;;;;;;;;;;5051043;28;20029;-63
2023/03/23 05:39:47;;;;;;;2.65;2.25;;;;;;;;;;5050687;28;20641;-65
2023/03/23 05:42:13;;;;;;;6.22;1.75;;;;;;;;;;5049464;28;20025;-64
2023/03/23 05:44:39;;;;;;;0.20;0.20;;;;;;;;;;5049729;28;20025;-64
2023/03/23 05:47:05;;;;;;;5.38;2.42;;;;;;;;;;5049522;28;20021;-65
2023/03/23 05:49:31;;;;;;;0.22;0.22;;;;;;;;;;5050566;28;20021;-63
2023/03/23 05:51:57;;;;;;;0.30;0.30;;;;;;;;;;5050477;28;20513;-64
2023/03/23 05:54:23;;;;;;;0.30;0.30;;;;;;;;;;5049415;28;20029;-63
2023/03/23 05:56:49;;;;;;;0.55;0.55;;;;;;;;;;5050712;28;20060;-63
2023/03/23 05:59:15;;;;;;;0.20;0.20;;;;;;;;;;5049395;28;20393;-65
2023/03/23 06:01:41;;;;;;;0.30;0.30;;;;;;;;;;5050591;28;20021;-65
2023/03/23 06:04:09;;;;;;;0.30;0.30;;;;;;;;;;5049348;28;20021;-65
2023/03/23 06:06:35;;;;;;;0.47;0.45;;;;;;;;;;5049472;28;20044;-64
2023/03/23 06:09:03;;;;;;;0.20;0.20;;;;;;;;;;5050394;28;20112;-64
2023/03/23 06:11:29;;;;;;;0.30;0.30;;;;;;;;;;5050416;28;20426;-64
2023/03/23 06:13:55;;;;;;;0.43;0.43;;;;;;;;;;5050039;28;20059;-63
2023/03/23 06:16:21;;;;;;;0.20;0.20;;;;;;;;;;5051128;28;20029;-64
2023/03/23 06:18:48;;;;;;;0.95;0.95;;;;;;;;;;5053769;28;20516;-64
2023/03/23 06:21:14;;;;;;;0.40;0.40;;;;;;;;;;5054310;28;20485;-64
2023/03/23 06:23:40;;;;;;;0.30;0.30;;;;;;;;;;5054133;28;20167;-65
2023/03/23 06:26:08;;;;;;;0.45;0.45;;;;;;;;;;5053897;28;20052;-64
2023/03/23 06:28:34;;;;;;;0.20;0.20;;;;;;;;;;5053787;28;20025;-65
2023/03/23 06:31:01;;;;;;;0.30;0.30;;;;;;;;;;5054100;28;20369;-64
2023/03/23 06:33:27;;;;;;;0.47;0.47;;;;;;;;;;5052781;28;20040;-64
2023/03/23 06:35:53;;;;;;;2.85;2.10;;;;;;;;;;5053910;28;20017;-64
2023/03/23 06:38:19;;;;;;;0.20;0.20;;;;;;;;;;5053498;28;20020;-64
2023/03/23 06:40:46;;;;;;;0.40;0.40;;;;;;;;;;5052377;28;20025;-65
2023/03/23 06:43:13;;;;;;;0.30;0.30;;;;;;;;;;5053698;28;20024;-65
2023/03/23 06:45:40;;;;;;;0.25;0.25;;;;;;;;;;5053584;28;20029;-64
2023/03/23 06:48:06;;;;;;;0.90;0.90;;;;;;;;;;5052395;28;20029;-64
2023/03/23 06:50:32;;;;;;;0.75;0.75;;;;;;;;;;5053548;28;20481;-65
2023/03/23 06:52:58;;;;;;;0.20;0.20;;;;;;;;;;5053377;28;20021;-64
2023/03/23 06:55:25;;;;;;;0.40;0.40;;;;;;;;;;5053374;28;20497;-65
2023/03/23 06:57:51;;;;;;;0.30;0.30;;;;;;;;;;5053292;28;20017;-65
2023/03/23 07:00:17;;;;;;;3.63;3.40;;;;;;;;;;5053673;28;20041;-64
2023/03/23 07:02:44;;;;;;;0.22;0.22;;;;;;;;;;5053404;28;20017;-65
2023/03/23 07:05:10;;;;;;;0.20;0.20;;;;;;;;;;5050936;28;20608;-63
2023/03/23 07:07:37;;;;;;;0.98;0.98;;;;;;;;;;5053364;28;20024;-64
2023/03/23 07:10:04;;;;;;;0.30;0.30;;;;;;;;;;5052855;28;20021;-66
2023/03/23 07:12:30;;;;;;;0.30;0.30;;;;;;;;;;5053121;28;20097;-65
2023/03/23 07:14:56;;;;;;;0.30;0.30;;;;;;;;;;5053182;28;20134;-66
2023/03/23 07:17:23;;;;;;;4.28;2.28;;;;;;;;;;5050996;28;20412;-66
2023/03/23 07:19:49;;;;;;;0.30;0.30;;;;;;;;;;5052880;28;20137;-66
2023/03/23 07:22:16;;;;;;;9.13;2.90;;;;;;;;;;5052897;28;20047;-65
2023/03/23 07:24:42;;;;;;;0.98;0.90;;;;;;;;;;5052776;28;20051;-65
2023/03/23 07:27:09;;;;;;;0.32;0.32;;;;;;;;;;5051096;28;20028;-66
2023/03/23 07:29:38;;;;;;;0.30;0.30;;;;;;;;;;5051175;28;20032;-65
2023/03/23 07:32:04;;;;;;;0.70;0.70;;;;;;;;;;5049669;28;20025;-66
2023/03/23 07:34:31;;;;;;;0.20;0.20;;;;;;;;;;5050981;28;20452;-66
2023/03/23 07:36:57;;;;;;;0.20;0.20;;;;;;;;;;5051318;28;20267;-66
2023/03/23 07:39:25;;;;;;;0.40;0.40;;;;;;;;;;5050862;28;20099;-67
2023/03/23 07:41:51;;;;;;;1.10;1.10;;;;;;;;;;5052465;28;20024;-66
2023/03/23 07:44:17;;;;;;;0.20;0.20;;;;;;;;;;5052541;28;20041;-66
2023/03/23 07:46:43;;;;;;;0.30;0.30;;;;;;;;;;5052762;28;20045;-67
2023/03/23 07:49:10;;;;;;;2.25;2.15;;;;;;;;;;5051232;28;20086;-66
2023/03/23 07:51:38;;;;;;;0.30;0.30;;;;;;;;;;5052302;28;20029;-66
2023/03/23 07:54:04;;;;;;;0.20;0.20;;;;;;;;;;5052169;28;20028;-66
2023/03/23 07:56:31;;;;;;;0.20;0.20;;;;;;;;;;5052369;28;20045;-66
2023/03/23 07:58:57;;;;;;;0.40;0.40;;;;;;;;;;5052178;28;20363;-67
2023/03/23 08:01:23;;;;;;;0.40;0.40;;;;;;;;;;5052255;28;20071;-67
2023/03/23 08:03:51;;;;;;;0.28;0.28;;;;;;;;;;5052499;28;20021;-66
2023/03/23 08:06:17;;;;;;;0.95;0.95;;;;;;;;;;5050487;28;20323;-67
2023/03/23 08:08:43;;;;;;;2.70;0.90;;;;;;;;;;5052129;28;20036;-66
2023/03/23 08:11:09;;;;;;;0.40;0.40;;;;;;;;;;5051927;28;20022;-67
2023/03/23 08:13:35;;;;;;;3.72;1.55;;;;;;;;;;5052053;28;20032;-66
2023/03/23 08:16:04;;;;;;;0.20;0.20;;;;;;;;;;5051779;28;20021;-67
2023/03/23 08:18:31;;;;;;;3.60;2.65;;;;;;;;;;5047350;28;20478;-66
2023/03/23 08:20:57;;;;;;;0.20;0.20;;;;;;;;;;5032896;28;20033;-67
2023/03/23 08:23:23;;;;;;;0.30;0.30;;;;;;;;;;5032057;28;20052;-66
2023/03/23 08:25:49;;;;;;;0.20;0.20;;;;;;;;;;5032124;28;20026;-66
2023/03/23 08:28:15;;;;;;;0.30;0.30;;;;;;;;;;5031877;28;20105;-66
2023/03/23 08:30:42;;;;;;;0.30;0.30;;;;;;;;;;5031934;28;20476;-67
2023/03/23 08:33:10;;;;;;;0.20;0.20;;;;;;;;;;5031692;28;20021;-66
2023/03/23 08:35:36;;;;;;;0.20;0.20;;;;;;;;;;5041393;28;20458;-66
2023/03/23 08:38:02;;;;;;;1.20;0.95;;;;;;;;;;5051357;28;20370;-67
2023/03/23 08:40:29;;;;;;;0.70;0.70;;;;;;;;;;5051404;28;20033;-66
2023/03/23 08:42:55;;;;;;;0.22;0.22;;;;;;;;;;5051382;28;20025;-65
2023/03/23 08:45:23;;;;;;;0.20;0.20;;;;;;;;;;5051418;28;20474;-66
2023/03/23 08:47:51;;;;;;;1.00;1.00;;;;;;;;;;5051489;28;20461;-65
2023/03/23 08:50:22;;;;;;;0.38;0.38;;;;;;;;;;5051184;28;20466;-66
2023/03/23 08:52:49;;;;;;;4.00;1.58;;;;;;;;;;5050011;28;20031;-66
2023/03/23 08:55:17;;;;;;;0.30;0.30;;;;;;;;;;5051437;28;20108;-67
2023/03/23 08:57:43;;;;;;;0.30;0.30;;;;;;;;;;5050989;28;20036;-66
2023/03/23 09:00:16;;;;;;;0.20;0.20;;;;;;;;;;5051273;28;20032;-67
2023/03/23 09:02:42;;;;;;;0.28;0.28;;;;;;;;;;5051383;28;20056;-66
2023/03/23 09:05:10;;;;;;;0.30;0.30;;;;;;;;;;5051303;28;20466;-66
2023/03/23 09:07:38;;;;;;;0.47;0.47;;;;;;;;;;5051195;28;20022;-67
2023/03/23 09:10:04;;;;;;;7.13;3.30;;;;;;;;;;5049815;28;20112;-66
2023/03/23 09:12:30;;;;;;;0.30;0.30;;;;;;;;;;5051060;28;20021;-67
2023/03/23 09:14:56;;;;;;;2.67;2.47;;;;;;;;;;5051218;28;20055;-67
2023/03/23 09:17:22;;;;;;;0.82;0.82;;;;;;;;;;5032899;28;20037;-66
2023/03/23 09:19:48;;;;;;;0.30;0.30;;;;;;;;;;5030677;28;20141;-67
2023/03/23 09:22:19;;;;;;;0.22;0.22;;;;;;;;;;5030971;28;20040;-66
2023/03/23 09:24:46;;;;;;;0.30;0.30;;;;;;;;;;5031021;28;20041;-67
2023/03/23 09:27:12;;;;;;;0.20;0.20;;;;;;;;;;5031236;28;20264;-65
2023/03/23 09:29:38;;;;;;;6.60;3.15;;;;;;;;;;5030992;28;20060;-67
2023/03/23 09:32:04;;;;;;;0.30;0.30;;;;;;;;;;5030231;28;20087;-66
2023/03/23 09:34:30;;;;;;;0.20;0.20;;;;;;;;;;5030957;28;20390;-67
2023/03/23 09:36:56;;;;;;;0.43;0.43;;;;;;;;;;5031027;28;20397;-66
2023/03/23 09:39:22;;;;;;;0.30;0.30;;;;;;;;;;5029428;28;20041;-66
2023/03/23 09:42:00;;;;;;;0.20;0.20;;;;;;;;;;5030831;28;20096;-66
2023/03/23 09:44:45;;;;;;;0.25;0.25;;;;;;;;;;5030759;28;20021;-64
2023/03/23 09:47:31;;;;;;;1.00;1.00;;;;;;;;;;5030759;28;20486;-65
2023/03/23 09:50:00;;;;;;;8.20;1.75;;;;;;;;;;5044627;28;20028;-66
2023/03/23 09:52:50;;;;;;;0.20;0.20;;;;;;;;;;5054147;28;20338;-66
2023/03/23 09:55:17;;;;;;;0.55;0.55;;;;;;;;;;5049095;28;20084;-65
2023/03/23 09:58:02;;;;;;;0.20;0.20;;;;;;;;;;5053409;28;20511;-67
2023/03/23 10:00:35;;;;;;;7.22;2.92;;;;;;;;;;5054849;28;20029;-66
2023/03/23 10:03:02;;;;;;;0.20;0.20;;;;;;;;;;5054976;28;20017;-66
2023/03/23 10:05:35;;;;;;;0.30;0.30;;;;;;;;;;5052120;28;20021;-67
2023/03/23 10:08:04;;;;;;;0.20;0.20;;;;;;;;;;5054448;28;20053;-67
2023/03/23 10:10:35;;;;;;;0.20;0.20;;;;;;;;;;5044648;28;20120;-66
2023/03/23 10:13:28;;;;;;;1.85;1.65;;;;;;;;;;5034305;28;20017;-67
2023/03/23 10:15:55;;;;;;;2.42;2.33;;;;;;;;;;5018336;28;20068;-67
2023/03/23 10:18:30;;;;;;;0.20;0.20;;;;;;;;;;5034025;28;20486;-65
2023/03/23 10:21:01;;;;;;;35.28;1.58;;;;;;;;;;5034278;28;20030;-68
2023/03/23 10:23:33;;;;;;;0.20;0.20;;;;;;;;;;5034044;28;20021;-66
2023/03/23 10:26:19;;;;;;;13.77;2.25;;;;;;;;;;5034040;28;20027;-66
2023/03/23 10:28:56;;;;;;;0.40;0.40;;;;;;;;;;5047541;28;20439;-66
2023/03/23 10:31:24;;;;;;;1.85;1.75;;;;;;;;;;5053940;28;20487;-66
2023/03/23 10:33:55;;;;;;;0.30;0.30;;;;;;;;;;5053915;28;20070;-66
2023/03/23 10:36:36;;;;;;;2.20;1.23;;;;;;;;;;5053717;28;20021;-66
2023/03/23 10:39:20;;;;;;;0.20;0.20;;;;;;;;;;5053631;28;20493;-68
2023/03/23 10:41:46;;;;;;;0.30;0.30;;;;;;;;;;5053782;28;20075;-65
2023/03/23 10:44:20;;;;;;;0.73;0.73;;;;;;;;;;5053778;28;20044;-66
2023/03/23 10:46:53;;;;;;;9.77;1.13;;;;;;;;;;5052370;28;20033;-66
2023/03/23 10:49:23;;;;;;;0.30;0.30;;;;;;;;;;5053775;28;20025;-66
2023/03/23 10:52:01;;;;;;;0.20;0.20;;;;;;;;;;5053575;28;20025;-66
2023/03/23 10:54:32;;;;;;;0.20;0.20;;;;;;;;;;5053542;28;20029;-66
2023/03/23 10:56:58;;;;;;;1.15;0.68;;;;;;;;;;5053564;28;20017;-67
2023/03/23 10:59:28;;;;;;;0.40;0.40;;;;;;;;;;5053426;28;20044;-66
2023/03/23 11:01:59;;;;;;;2.47;0.85;;;;;;;;;;5051918;28;20469;-66
2023/03/23 11:04:26;;;;;;;0.20;0.20;;;;;;;;;;5053730;28;20053;-66
2023/03/23 11:06:53;;;;;;;0.55;0.55;;;;;;;;;;5053356;28;20021;-66
2023/03/23 11:09:21;;;;;;;0.25;0.25;;;;;;;;;;5053064;28;20105;-67
2023/03/23 11:11:51;;;;;;;0.52;0.52;;;;;;;;;;5053177;28;20035;-66
2023/03/23 11:14:29;;;;;;;1.48;1.27;;;;;;;;;;5053321;28;20017;-65
2023/03/23 11:17:01;;;;;;;0.20;0.20;;;;;;;;;;5053150;28;20017;-67
2023/03/23 11:19:28;;;;;;;0.20;0.20;;;;;;;;;;5051564;28;20053;-67
2023/03/23 11:21:57;;;;;;;1.70;0.57;;;;;;;;;;5052854;28;20025;-67
2023/03/23 11:24:26;;;;;;;0.65;0.65;;;;;;;;;;5052632;28;20036;-65
2023/03/23 11:26:53;;;;;;;14.93;1.77;;;;;;;;;;5052693;28;20052;-66
2023/03/23 11:29:29;;;;;;;0.28;0.28;;;;;;;;;;5052751;28;20032;-66
2023/03/23 11:32:05;;;;;;;0.57;0.57;;;;;;;;;;5052780;28;20025;-66
2023/03/23 11:34:35;;;;;;;5.43;4.88;;;;;;;;;;5051474;28;20040;-66
2023/03/23 11:37:03;;;;;;;2.70;1.95;;;;;;;;;;5044234;28;20033;-66
2023/03/23 11:39:31;;;;;;;0.20;0.20;;;;;;;;;;5032405;28;20034;-66
2023/03/23 11:41:58;;;;;;;0.20;0.20;;;;;;;;;;5032707;28;20018;-66
2023/03/23 11:44:25;;;;;;;0.30;0.30;;;;;;;;;;5032486;28;20530;-66
2023/03/23 11:46:54;;;;;;;0.50;0.50;;;;;;;;;;5032515;28;20022;-67
2023/03/23 11:49:33;;;;;;;0.47;0.47;;;;;;;;;;5032397;28;20022;-66
2023/03/23 11:52:09;;;;;;;0.30;0.30;;;;;;;;;;5032414;28;20036;-67
2023/03/23 11:54:38;;;;;;;0.28;0.28;;;;;;;;;;5034613;28;20048;-68
2023/03/23 11:57:13;;;;;;;1.20;0.85;;;;;;;;;;5052359;28;20146;-68
2023/03/23 11:59:40;;;;;;;0.30;0.30;;;;;;;;;;5052129;28;20497;-67
2023/03/23 12:02:15;;;;;;;1.15;1.05;;;;;;;;;;5050897;28;20032;-67
2023/03/23 12:04:44;;;;;;;1.00;1.00;;;;;;;;;;5052213;28;20489;-66
2023/03/23 12:07:23;;;;;;;26.65;1.30;;;;;;;;;;5052360;28;20017;-66
2023/03/23 12:10:01;;;;;;;3.50;1.50;;;;;;;;;;5050384;28;20108;-66
2023/03/23 12:12:30;;;;;;;5.47;2.08;;;;;;;;;;5050874;28;20417;-66
2023/03/23 12:14:56;;;;;;;0.25;0.25;;;;;;;;;;5051265;28;20486;-68
2023/03/23 12:17:28;;;;;;;1.88;0.35;;;;;;;;;;5052062;28;20044;-67
2023/03/23 12:19:54;;;;;;;;;;;;;;;;;;5052257;28;20053;-67
2023/03/23 12:22:28;;;;;;;0.20;0.20;;;;;;;;;;5050666;28;19905;-68
2023/03/23 12:25:10;;;;;;;0.70;0.70;;;;;;;;;;5051887;28;20036;-68
2023/03/23 12:27:46;;;;;;;0.52;0.52;;;;;;;;;;5050604;28;20021;-66
2023/03/23 12:30:20;;;;;;;0.25;0.25;;;;;;;;;;5051747;28;20025;-66
2023/03/23 12:33:08;;;;;;;0.20;0.20;;;;;;;;;;5051778;28;20420;-67
2023/03/23 12:35:34;;;;;;;0.60;0.60;;;;;;;;;;5044548;28;20481;-67
2023/03/23 12:38:06;;;;;;;1.73;0.70;;;;;;;;;;5051835;28;20029;-67
2023/03/23 12:40:39;;;;;;;0.55;0.55;;;;;;;;;;5051607;28;20047;-67
2023/03/23 12:43:05;;;;;;;0.20;0.20;;;;;;;;;;5051705;28;20017;-67
2023/03/23 12:45:49;;;;;;;0.35;0.35;;;;;;;;;;5050061;28;20560;-68
2023/03/23 12:48:22;;;;;;;2.45;0.85;;;;;;;;;;5051504;28;20029;-69
2023/03/23 12:51:03;;;;;;;0.30;0.30;;;;;;;;;;5051579;28;20064;-68
2023/03/23 12:53:33;;;;;;;0.22;0.22;;;;;;;;;;5051533;28;20033;-67
2023/03/23 12:56:13;;;;;;;0.22;0.22;;;;;;;;;;5051364;28;20024;-68
2023/03/23 12:58:42;;;;;;;0.32;0.32;;;;;;;;;;5051385;28;20025;-67
2023/03/23 13:01:17;;;;;;;0.20;0.20;;;;;;;;;;5051438;28;20033;-67
2023/03/23 13:03:47;;;;;;;0.20;0.20;;;;;;;;;;5031540;28;20029;-67
2023/03/23 13:06:20;;;;;;;0.90;0.90;;;;;;;;;;5046597;28;20025;-66
2023/03/23 13:09:12;;;;;;;0.20;0.20;;;;;;;;;;5031482;28;20167;-67
2023/03/23 13:11:38;;;;;;;0.20;0.20;;;;;;;;;;5031459;28;20037;-67
2023/03/23 13:14:04;;;;;;;0.20;0.20;;;;;;;;;;5031252;28;20022;-67
2023/03/23 13:16:43;;;;;;;4.30;0.95;;;;;;;;;;5031279;28;20048;-67
2023/03/23 13:19:17;;;;;;;0.20;0.20;;;;;;;;;;5039427;28;20064;-68
2023/03/23 13:21:50;;;;;;;0.40;0.40;;;;;;;;;;5051299;28;20418;-69
2023/03/23 13:24:20;;;;;;;0.20;0.20;;;;;;;;;;5051281;28;20079;-68
2023/03/23 13:26:47;;;;;;;0.60;0.60;;;;;;;;;;5055057;28;20032;-68
2023/03/23 13:29:15;;;;;;;3.35;1.50;;;;;;;;;;5055668;28;20033;-68
2023/03/23 13:31:41;;;;;;;1.40;1.30;;;;;;;;;;5055174;28;20079;-69
2023/03/23 13:34:30;;;;;;;1.52;1.42;;;;;;;;;;5054916;28;20032;-69
2023/03/23 13:36:57;;;;;;;0.20;0.20;;;;;;;;;;5034941;28;20068;-67
2023/03/23 13:39:24;;;;;;;1.40;0.85;;;;;;;;;;5034817;28;20045;-67
2023/03/23 13:42:04;;;;;;;3.28;1.10;;;;;;;;;;5034818;28;20064;-65
2023/03/23 13:44:51;;;;;;;0.30;0.30;;;;;;;;;;5033507;28;20036;-68
2023/03/23 13:47:17;;;;;;;2.05;0.65;;;;;;;;;;5027728;28;20040;-68
2023/03/23 13:49:55;;;;;;;1.75;1.65;;;;;;;;;;5034842;28;20378;-68
2023/03/23 13:52:21;;;;;;;5.20;1.55;;;;;;;;;;5034544;28;20108;-68
2023/03/23 13:54:48;;;;;;;0.40;0.40;;;;;;;;;;5034724;28;20026;-68
2023/03/23 13:57:42;;;;;;;1.50;1.35;;;;;;;;;;5034903;28;20087;-69
2023/03/23 14:00:25;;;;;;;0.38;0.38;;;;;;;;;;5019368;28;20056;-69
2023/03/23 14:02:51;;;;;;;2.55;1.27;;;;;;;;;;5033227;28;20097;-68
2023/03/23 14:05:17;;;;;;;0.22;0.22;;;;;;;;;;5034660;28;20022;-69
2023/03/23 14:07:59;;;;;;;0.38;0.38;;;;;;;;;;5034644;28;20128;-69
2023/03/23 14:10:32;;;;;;;0.90;0.90;;;;;;;;;;5054128;28;20064;-67
2023/03/23 14:12:59;;;;;;;0.20;0.20;;;;;;;;;;5054115;28;20052;-67
2023/03/23 14:15:29;;;;;;;0.35;0.35;;;;;;;;;;5054491;28;20100;-67
2023/03/23 14:17:55;;;;;;;0.35;0.35;;;;;;;;;;5054302;28;20025;-69
2023/03/23 14:20:32;;;;;;;1.55;1.55;;;;;;;;;;5054067;28;20078;-68
2023/03/23 14:22:58;;;;;;;1.42;0.75;;;;;;;;;;5054212;28;20021;-67
2023/03/23 14:25:27;;;;;;;2.40;2.28;;;;;;;;;;5051739;28;20029;-69
2023/03/23 14:27:53;;;;;;;0.65;0.38;;;;;;;;;;5052813;28;20385;-68
2023/03/23 14:30:21;;;;;;;0.20;0.20;;;;;;;;;;5054065;28;20515;-68
2023/03/23 14:32:49;;;;;;;0.30;0.30;;;;;;;;;;5053829;28;20064;-68
2023/03/23 14:35:35;;;;;;;0.40;0.40;;;;;;;;;;5053724;28;20092;-69
2023/03/23 14:38:01;;;;;;;0.47;0.47;;;;;;;;;;5051854;28;20032;-67
2023/03/23 14:40:28;;;;;;;5.65;1.10;;;;;;;;;;5052789;28;20367;-68
2023/03/23 14:42:55;;;;;;;0.30;0.30;;;;;;;;;;5052512;28;20046;-71
2023/03/23 14:45:22;;;;;;;1.17;1.13;;;;;;;;;;5052444;28;20044;-71
2023/03/23 14:47:48;;;;;;;1.95;1.85;;;;;;;;;;5053647;28;20043;-71
2023/03/23 14:50:33;;;;;;;0.20;0.20;;;;;;;;;;5052431;28;20025;-72
2023/03/23 14:53:14;;;;;;;0.40;0.40;;;;;;;;;;5053687;28;20611;-72
2023/03/23 14:55:42;;;;;;;1.55;1.45;;;;;;;;;;5053771;28;20074;-73